Romoland, California
Current Conditions -  °F | °C
As of 6:58 PM on Friday 19 Dec 2014 (Local Time) from KRIV Reporting Station
Few Clouds Few Clouds  
Wind Chill: 52°   Ceiling: Unl
Heat Index: 52°   Visibility: 10mi
Dew Point: 44°   Wind: 6mph
Humidity: 73%   Direction: 270°W
Pressure: 30.17"   Gusts: NA
Location:  33.7456°N, 117.17°W
Report Text: KRIV 200258Z AUTO 27005KT 10SM FEW180 11/07 A3017 RMK AO2 SLP219 T01120066 51006
Loading
Personal Weather Stations






























Interactive Weather Map New forecast layout! Learn more

10-Day Weather Forecast

Advertisements
Track Severe Weather on mobile